createdAt,value
2022-09-30T00:00:57.814Z,97.29
2022-09-30T00:01:57.828Z,97.50
2022-09-30T00:02:57.833Z,97.71
2022-09-30T00:03:57.833Z,97.39
2022-09-30T00:04:57.785Z,97.08
2022-09-30T00:05:58.277Z,97.81
2022-09-30T00:06:57.761Z,98.01
2022-09-30T00:07:57.761Z,98.01
2022-09-30T00:08:57.859Z,98.32
2022-09-30T00:09:59.261Z,98.01
2022-09-30T00:10:57.736Z,98.01
2022-09-30T00:11:57.721Z,98.06
2022-09-30T00:12:58.267Z,97.39
2022-09-30T00:13:57.723Z,97.75
2022-09-30T00:14:57.723Z,98.47
2022-09-30T00:15:57.778Z,98.52
2022-09-30T00:16:57.695Z,98.27
2022-09-30T00:17:57.682Z,98.31
2022-09-30T00:18:57.680Z,99.24
2022-09-30T00:19:57.694Z,99.14
2022-09-30T00:20:58.223Z,98.93
2022-09-30T00:21:57.651Z,99.39
2022-09-30T00:22:57.650Z,99.86
2022-09-30T00:23:57.639Z,99.70
2022-09-30T00:24:57.634Z,99.60
2022-09-30T00:25:57.640Z,99.99
2022-09-30T00:26:57.610Z,99.49
2022-09-30T00:27:57.601Z,99.99
2022-09-30T00:28:57.609Z,99.85
2022-09-30T00:30:49.099Z,99.99
2022-09-30T00:31:49.196Z,99.99
2022-09-30T00:32:50.176Z,99.99
2022-09-30T00:33:50.176Z,99.99
2022-09-30T00:34:50.161Z,99.99
2022-09-30T00:35:50.164Z,99.99
2022-09-30T00:36:50.157Z,99.99
2022-09-30T00:37:50.149Z,99.99
2022-09-30T00:38:50.129Z,99.99
2022-09-30T00:39:50.122Z,99.99
2022-09-30T00:40:50.144Z,99.99
2022-09-30T00:41:50.118Z,99.99
2022-09-30T00:42:50.096Z,99.99
2022-09-30T00:43:50.102Z,99.99
2022-09-30T00:44:50.083Z,99.99
2022-09-30T00:45:50.052Z,99.99
2022-09-30T00:46:51.116Z,99.99
2022-09-30T00:47:50.066Z,99.99
2022-09-30T00:48:50.051Z,99.99
2022-09-30T00:49:50.042Z,99.99
2022-09-30T00:50:50.033Z,99.99
2022-09-30T00:51:50.020Z,99.99
2022-09-30T00:52:50.033Z,99.99
2022-09-30T00:53:50.003Z,99.99
2022-09-30T00:54:50.003Z,99.99
2022-09-30T00:55:49.992Z,99.99
2022-09-30T00:56:49.985Z,99.99
2022-09-30T00:57:49.979Z,99.99
2022-09-30T00:58:49.962Z,99.96
2022-09-30T00:59:49.955Z,99.99
2022-09-30T01:00:50.047Z,99.99
2022-09-30T01:01:49.967Z,99.99
2022-09-30T01:02:49.940Z,99.99
2022-09-30T01:03:49.922Z,99.65
2022-09-30T01:04:49.922Z,99.71
2022-09-30T01:05:49.906Z,99.99
2022-09-30T01:06:49.895Z,99.99
2022-09-30T01:07:49.907Z,99.99
2022-09-30T01:08:49.897Z,99.99
2022-09-30T01:09:49.920Z,99.55
2022-09-30T01:10:49.868Z,98.99
2022-09-30T01:11:49.857Z,99.09
2022-09-30T01:12:49.860Z,99.51
2022-09-30T01:13:49.852Z,99.65
2022-09-30T01:14:49.848Z,99.71
2022-09-30T01:15:49.898Z,99.61
2022-09-30T01:16:49.823Z,99.51
2022-09-30T01:17:49.819Z,99.19
2022-09-30T01:18:49.808Z,99.14
2022-09-30T01:19:49.806Z,99.14
2022-09-30T01:20:49.790Z,99.09
2022-09-30T01:21:49.795Z,99.71
2022-09-30T01:22:49.778Z,99.55
2022-09-30T01:23:49.771Z,99.99
2022-09-30T01:24:49.774Z,99.99
2022-09-30T01:25:49.751Z,99.71
2022-09-30T01:26:49.747Z,99.61
2022-09-30T01:27:49.738Z,99.30
2022-09-30T01:28:49.733Z,99.19
2022-09-30T01:29:49.727Z,99.40
2022-09-30T01:30:49.715Z,98.99
2022-09-30T01:31:49.766Z,99.40
2022-09-30T01:32:49.696Z,98.88
2022-09-30T01:33:49.699Z,99.19
2022-09-30T01:34:49.686Z,99.09
2022-09-30T01:35:49.669Z,99.51
2022-09-30T01:36:49.674Z,99.61
2022-09-30T01:37:49.656Z,99.51
2022-09-30T01:38:49.651Z,98.99
2022-09-30T01:39:49.639Z,98.37
2022-09-30T01:40:49.649Z,99.09
2022-09-30T01:41:49.620Z,99.05
2022-09-30T01:42:49.613Z,99.15
2022-09-30T01:43:49.621Z,99.15
2022-09-30T01:44:49.597Z,99.35
2022-09-30T01:45:49.592Z,99.05
2022-09-30T01:46:49.631Z,99.15
2022-09-30T01:47:49.577Z,98.22
2022-09-30T01:48:49.579Z,97.85
2022-09-30T01:49:49.558Z,97.33
2022-09-30T01:50:49.566Z,97.44
2022-09-30T01:51:49.536Z,97.33
2022-09-30T01:52:49.558Z,97.33
2022-09-30T01:53:49.516Z,97.69
2022-09-30T01:54:49.522Z,97.44
2022-09-30T01:55:49.509Z,97.13
2022-09-30T01:56:49.500Z,97.44
2022-09-30T01:57:49.488Z,97.44
2022-09-30T01:58:49.493Z,97.64
2022-09-30T01:59:49.473Z,97.64
2022-09-30T02:00:49.593Z,97.07
2022-09-30T02:01:49.486Z,96.66
2022-09-30T02:02:49.463Z,97.17
2022-09-30T02:03:49.450Z,97.74
2022-09-30T02:04:49.437Z,98.05
2022-09-30T02:05:50.046Z,97.94
2022-09-30T02:06:50.422Z,98.15
2022-09-30T02:07:49.426Z,98.15
2022-09-30T02:08:49.411Z,98.40
2022-09-30T02:09:49.494Z,98.25
2022-09-30T02:10:49.399Z,98.19
2022-09-30T02:11:49.385Z,98.19
2022-09-30T02:12:49.372Z,98.50
2022-09-30T02:13:49.366Z,98.92
2022-09-30T02:14:49.368Z,98.86
2022-09-30T02:15:49.385Z,98.82
2022-09-30T02:16:49.439Z,99.58
2022-09-30T02:17:49.342Z,99.38
2022-09-30T02:18:49.337Z,99.33
2022-09-30T02:19:49.324Z,99.07
2022-09-30T02:20:49.320Z,99.58
2022-09-30T02:21:49.319Z,99.58
2022-09-30T02:22:49.298Z,99.38
2022-09-30T02:23:49.289Z,98.96
2022-09-30T02:24:49.292Z,99.27
2022-09-30T02:25:49.317Z,99.58
2022-09-30T02:26:49.275Z,99.07
2022-09-30T02:27:49.262Z,99.43
2022-09-30T02:28:49.251Z,99.63
2022-09-30T02:29:49.254Z,99.32
2022-09-30T02:30:49.230Z,99.84
2022-09-30T02:31:49.276Z,99.94
2022-09-30T02:32:49.218Z,99.79
2022-09-30T02:33:49.209Z,99.99
2022-09-30T02:34:49.204Z,99.73
2022-09-30T02:35:49.195Z,99.63
2022-09-30T02:36:49.189Z,99.73
2022-09-30T02:37:49.170Z,99.43
2022-09-30T02:38:49.165Z,99.94
2022-09-30T02:39:49.175Z,99.90
2022-09-30T02:40:49.158Z,99.79
2022-09-30T02:41:49.186Z,99.90
2022-09-30T02:42:49.144Z,99.99
2022-09-30T02:43:49.135Z,99.99
2022-09-30T02:44:49.130Z,99.99
2022-09-30T02:45:49.112Z,99.95
2022-09-30T02:46:49.192Z,99.64
2022-09-30T02:47:49.099Z,99.74
2022-09-30T02:48:49.099Z,99.85
2022-09-30T02:49:49.081Z,99.74
2022-09-30T02:50:49.081Z,99.95
2022-09-30T02:51:49.075Z,99.85
2022-09-30T02:52:49.056Z,99.64
2022-09-30T02:53:49.055Z,99.74
2022-09-30T02:54:49.039Z,99.43
2022-09-30T02:55:49.023Z,98.71
2022-09-30T02:56:50.034Z,99.43
2022-09-30T02:57:49.019Z,99.43
2022-09-30T02:58:49.007Z,99.39
2022-09-30T02:59:49.009Z,99.54
2022-09-30T03:00:49.090Z,99.33
2022-09-30T03:01:49.043Z,98.97
2022-09-30T03:02:48.983Z,99.39
2022-09-30T03:03:48.975Z,99.39
2022-09-30T03:04:48.963Z,98.82
2022-09-30T03:05:48.953Z,99.08
2022-09-30T03:06:48.943Z,98.97
2022-09-30T03:07:48.950Z,98.66
2022-09-30T03:08:48.930Z,98.35
2022-09-30T03:09:48.991Z,98.19
2022-09-30T03:10:48.919Z,98.56
2022-09-30T03:11:48.905Z,98.30
2022-09-30T03:12:48.915Z,98.61
2022-09-30T03:13:48.890Z,98.71
2022-09-30T03:14:48.877Z,99.43
2022-09-30T03:15:48.915Z,99.54
2022-09-30T03:16:48.860Z,99.54
2022-09-30T03:17:48.865Z,99.23
2022-09-30T03:18:48.859Z,99.02
2022-09-30T03:19:48.850Z,99.23
2022-09-30T03:20:48.834Z,99.74
2022-09-30T03:21:48.842Z,99.74
2022-09-30T03:22:48.826Z,99.85
2022-09-30T03:23:48.805Z,99.70
2022-09-30T03:24:48.813Z,99.95
2022-09-30T03:25:48.796Z,99.91
2022-09-30T03:26:48.792Z,99.80
2022-09-30T03:27:48.782Z,99.60
2022-09-30T03:28:48.770Z,99.91
2022-09-30T03:29:48.761Z,99.74
2022-09-30T03:30:48.756Z,99.33
2022-09-30T03:31:48.801Z,99.33
2022-09-30T03:32:48.738Z,99.64
2022-09-30T03:33:48.738Z,99.99
2022-09-30T03:34:48.729Z,99.95
2022-09-30T03:35:48.725Z,99.99
2022-09-30T03:36:48.706Z,99.99
2022-09-30T03:37:48.699Z,99.99
2022-09-30T03:38:48.698Z,99.99
2022-09-30T03:39:48.684Z,99.64
2022-09-30T03:40:48.676Z,99.85
2022-09-30T03:41:48.669Z,99.85
2022-09-30T03:42:48.669Z,99.85
2022-09-30T03:43:48.660Z,99.64
2022-09-30T03:44:48.641Z,99.69
2022-09-30T03:45:48.655Z,99.79
2022-09-30T03:46:48.652Z,99.38
2022-09-30T03:47:48.647Z,99.48
2022-09-30T03:48:48.613Z,98.75
2022-09-30T03:49:48.601Z,99.38
2022-09-30T03:50:48.596Z,99.48
2022-09-30T03:51:50.940Z,99.48
2022-09-30T03:52:49.648Z,99.69
2022-09-30T03:53:48.569Z,99.69
2022-09-30T03:54:49.073Z,99.27
2022-09-30T03:55:48.559Z,99.58
2022-09-30T03:56:48.549Z,99.07
2022-09-30T03:57:48.537Z,99.43
2022-09-30T03:58:48.535Z,99.99
2022-09-30T03:59:48.526Z,99.94
2022-09-30T04:00:48.596Z,99.73
2022-09-30T04:01:48.572Z,99.99
2022-09-30T04:02:48.497Z,99.99
2022-09-30T04:03:48.485Z,99.99
2022-09-30T04:04:48.487Z,99.99
2022-09-30T04:05:48.476Z,99.99
2022-09-30T04:06:48.462Z,99.99
2022-09-30T04:07:48.453Z,99.99
2022-09-30T04:08:48.486Z,99.99
2022-09-30T04:09:48.610Z,99.90
2022-09-30T04:10:48.441Z,99.54
2022-09-30T04:11:48.434Z,99.85
2022-09-30T04:12:48.427Z,99.85
2022-09-30T04:13:48.426Z,99.74
2022-09-30T04:14:48.397Z,99.99
2022-09-30T04:15:48.393Z,99.23
2022-09-30T04:16:51.894Z,99.49
2022-09-30T04:17:50.375Z,99.80
2022-09-30T04:18:48.373Z,99.91
2022-09-30T04:19:48.360Z,99.33
2022-09-30T04:20:48.359Z,99.64
2022-09-30T04:21:48.356Z,99.08
2022-09-30T04:22:48.338Z,97.88
2022-09-30T04:23:48.341Z,98.09
2022-09-30T04:24:48.327Z,98.19
2022-09-30T04:25:48.356Z,97.67
2022-09-30T04:26:48.307Z,97.57
2022-09-30T04:27:48.318Z,97.88
2022-09-30T04:28:48.289Z,97.36
2022-09-30T04:29:48.278Z,97.31
2022-09-30T04:30:48.287Z,97.31
2022-09-30T04:31:48.322Z,96.95
2022-09-30T04:32:48.264Z,97.06
2022-09-30T04:33:48.264Z,97.00
2022-09-30T04:34:48.239Z,96.75
2022-09-30T04:35:48.227Z,97.41
2022-09-30T04:36:48.221Z,97.06
2022-09-30T04:37:48.213Z,97.52
2022-09-30T04:38:48.209Z,97.83
2022-09-30T04:39:48.195Z,97.66
2022-09-30T04:40:48.192Z,98.28
2022-09-30T04:41:48.179Z,98.60
2022-09-30T04:42:48.289Z,98.39
2022-09-30T04:43:48.169Z,98.49
2022-09-30T04:44:48.175Z,98.49
2022-09-30T04:45:48.228Z,98.44
2022-09-30T04:46:48.139Z,98.75
2022-09-30T04:47:48.134Z,98.60
2022-09-30T04:48:48.134Z,99.22
2022-09-30T04:49:48.119Z,98.60
2022-09-30T04:50:48.115Z,97.97
2022-09-30T04:51:48.115Z,97.87
2022-09-30T04:52:48.098Z,97.14
2022-09-30T04:53:48.096Z,97.25
2022-09-30T04:54:48.088Z,96.62
2022-09-30T04:55:48.080Z,97.04
2022-09-30T04:56:48.078Z,97.35
2022-09-30T04:57:49.011Z,97.25
2022-09-30T04:58:48.052Z,97.35
2022-09-30T04:59:48.050Z,97.56
2022-09-30T05:00:48.090Z,97.25
2022-09-30T05:01:48.108Z,97.04
2022-09-30T05:02:48.020Z,97.04
2022-09-30T05:03:48.591Z,97.04
2022-09-30T05:04:48.009Z,97.45
2022-09-30T05:05:48.007Z,97.35
2022-09-30T05:06:47.995Z,97.77
2022-09-30T05:07:47.978Z,97.77
2022-09-30T05:08:47.984Z,97.35
2022-09-30T05:09:47.984Z,97.14
2022-09-30T05:10:47.951Z,97.25
2022-09-30T05:11:47.957Z,97.25
2022-09-30T05:12:47.952Z,97.56
2022-09-30T05:13:47.944Z,97.97
2022-09-30T05:14:47.925Z,97.87
2022-09-30T05:15:47.958Z,97.25
2022-09-30T05:16:47.930Z,97.25
2022-09-30T05:17:47.908Z,97.71
2022-09-30T05:18:47.896Z,97.77
2022-09-30T05:20:54.177Z,97.77
2022-09-30T05:21:54.173Z,97.66
2022-09-30T05:22:54.160Z,97.35
2022-09-30T05:23:54.160Z,97.77
2022-09-30T05:24:54.153Z,97.25
2022-09-30T05:25:54.141Z,97.35
2022-09-30T05:26:54.149Z,97.35
2022-09-30T05:27:54.126Z,96.73
2022-09-30T05:28:54.126Z,96.94
2022-09-30T05:29:54.104Z,97.45
2022-09-30T05:30:54.096Z,97.35
2022-09-30T05:31:54.145Z,96.73
2022-09-30T05:32:54.080Z,97.66
2022-09-30T05:33:57.884Z,97.66
2022-09-30T05:34:54.061Z,97.87
2022-09-30T05:35:54.059Z,97.77
2022-09-30T05:36:54.055Z,98.18
2022-09-30T05:37:55.029Z,98.70
2022-09-30T05:38:54.043Z,98.49
2022-09-30T05:39:54.033Z,98.39
2022-09-30T05:40:54.019Z,98.60
2022-09-30T05:41:54.014Z,98.18
2022-09-30T05:42:54.000Z,98.18
2022-09-30T05:43:54.011Z,98.13
2022-09-30T05:44:53.990Z,97.87
2022-09-30T05:45:53.985Z,97.77
2022-09-30T05:46:54.055Z,97.72
2022-09-30T05:47:53.962Z,97.97
2022-09-30T05:48:53.961Z,97.72
2022-09-30T05:49:56.178Z,97.77
2022-09-30T05:50:53.938Z,97.52
2022-09-30T05:51:53.929Z,96.89
2022-09-30T05:52:53.922Z,97.00
2022-09-30T05:53:53.926Z,97.20
2022-09-30T05:54:53.916Z,97.10
2022-09-30T05:55:53.899Z,97.10
2022-09-30T05:56:53.897Z,97.00
2022-09-30T05:57:53.893Z,97.10
2022-09-30T05:58:53.879Z,96.95
2022-09-30T05:59:53.889Z,96.95
2022-09-30T06:00:53.868Z,96.75
2022-09-30T06:01:55.055Z,97.06
2022-09-30T06:02:55.064Z,95.44
2022-09-30T06:03:54.941Z,95.54
2022-09-30T06:04:54.924Z,95.59
2022-09-30T06:05:54.931Z,95.90
2022-09-30T06:06:54.905Z,96.21
2022-09-30T06:07:54.932Z,96.42
2022-09-30T06:08:54.975Z,97.25
2022-09-30T06:09:54.911Z,97.29
2022-09-30T06:10:54.887Z,97.14
2022-09-30T06:11:54.879Z,97.66
2022-09-30T06:12:54.943Z,97.56
2022-09-30T06:13:54.849Z,97.14
2022-09-30T06:14:54.847Z,97.35
2022-09-30T06:15:54.850Z,97.14
2022-09-30T06:16:54.903Z,97.35
2022-09-30T06:17:55.626Z,97.14
2022-09-30T06:18:55.625Z,97.04
2022-09-30T06:19:54.805Z,97.31
2022-09-30T06:20:54.821Z,97.00
2022-09-30T06:21:54.783Z,96.89
2022-09-30T06:22:54.794Z,97.36
2022-09-30T06:23:54.768Z,96.58
2022-09-30T06:24:55.415Z,96.23
2022-09-30T06:25:55.768Z,95.44
2022-09-30T06:26:54.757Z,95.34
2022-09-30T06:27:54.745Z,95.29
2022-09-30T06:28:54.734Z,95.40
2022-09-30T06:29:54.723Z,95.61
2022-09-30T06:30:54.731Z,95.40
2022-09-30T06:31:54.853Z,95.29
2022-09-30T06:32:54.704Z,95.92
2022-09-30T06:33:54.688Z,94.68
2022-09-30T06:34:54.701Z,94.26
2022-09-30T06:35:54.693Z,93.99
2022-09-30T06:36:54.671Z,93.99
2022-09-30T06:37:54.677Z,94.62
2022-09-30T06:38:54.646Z,94.93
2022-09-30T06:39:54.660Z,95.14
2022-09-30T06:40:54.643Z,95.34
2022-09-30T06:41:54.622Z,95.24
2022-09-30T06:42:54.622Z,95.24
2022-09-30T06:43:58.398Z,95.19
2022-09-30T06:44:54.598Z,95.40
2022-09-30T06:46:04.319Z,95.29
2022-09-30T06:46:56.693Z,94.53
2022-09-30T06:48:00.050Z,94.01
2022-09-30T06:49:08.527Z,93.91
2022-09-30T06:49:56.570Z,94.18
2022-09-30T06:51:01.584Z,93.91
2022-09-30T06:51:56.546Z,93.76
2022-09-30T06:52:54.557Z,93.66
2022-09-30T06:53:54.530Z,94.07
2022-09-30T06:54:54.526Z,93.55
2022-09-30T06:55:54.525Z,93.91
2022-09-30T06:56:54.495Z,94.32
2022-09-30T06:57:54.493Z,94.38
2022-09-30T06:58:54.535Z,94.12
2022-09-30T06:59:54.511Z,93.91
2022-09-30T07:00:55.096Z,94.12
2022-09-30T07:01:54.526Z,93.97
2022-09-30T07:02:54.454Z,94.28
2022-09-30T07:03:54.821Z,94.28
2022-09-30T07:04:55.433Z,93.97
2022-09-30T07:05:54.438Z,93.72
2022-09-30T07:06:54.432Z,93.51
2022-09-30T07:07:54.418Z,93.30
2022-09-30T07:08:56.154Z,93.41
2022-09-30T07:09:57.558Z,93.30
2022-09-30T07:10:56.380Z,92.85
2022-09-30T07:11:54.374Z,92.64
2022-09-30T07:12:54.365Z,92.27
2022-09-30T07:13:54.409Z,92.79
2022-09-30T07:14:56.076Z,92.79
2022-09-30T07:15:54.349Z,92.54
2022-09-30T07:16:54.443Z,92.44
2022-09-30T07:17:55.276Z,92.44
2022-09-30T07:18:54.336Z,92.19
2022-09-30T07:19:54.441Z,92.50
2022-09-30T07:20:54.297Z,91.67
2022-09-30T07:21:54.306Z,91.16
2022-09-30T07:22:54.286Z,91.73
2022-09-30T07:23:54.918Z,91.11
2022-09-30T07:24:54.289Z,91.11
2022-09-30T07:25:54.284Z,90.28
2022-09-30T07:26:54.260Z,89.98
2022-09-30T07:27:54.283Z,89.25
2022-09-30T07:28:54.239Z,89.73
2022-09-30T07:30:08.874Z,89.87
2022-09-30T07:31:08.095Z,89.42
2022-09-30T07:31:56.284Z,89.52
2022-09-30T07:32:54.221Z,89.73
2022-09-30T07:33:54.197Z,88.90
2022-09-30T07:34:54.181Z,88.59
2022-09-30T07:35:54.180Z,88.39
2022-09-30T07:36:54.179Z,88.59
2022-09-30T07:37:54.169Z,88.70
2022-09-30T07:38:54.167Z,88.90
2022-09-30T07:39:54.156Z,88.39
2022-09-30T07:40:54.155Z,88.80
2022-09-30T07:41:54.165Z,88.72
2022-09-30T07:42:54.121Z,88.56
2022-09-30T07:43:54.108Z,88.82
2022-09-30T07:44:55.121Z,87.59
2022-09-30T07:45:54.202Z,87.48
2022-09-30T07:46:54.101Z,87.03
2022-09-30T07:47:54.172Z,86.82
2022-09-30T07:48:54.077Z,85.44
2022-09-30T07:49:54.061Z,85.75
2022-09-30T07:50:54.075Z,86.10
2022-09-30T07:51:54.103Z,86.10
2022-09-30T07:52:54.048Z,86.72
2022-09-30T07:53:54.034Z,86.72
2022-09-30T07:54:54.018Z,86.61
2022-09-30T07:55:54.026Z,86.35
2022-09-30T07:57:10.824Z,87.17
2022-09-30T07:57:56.017Z,87.13
2022-09-30T07:58:54.018Z,86.99
2022-09-30T07:59:53.984Z,86.47
2022-09-30T08:00:54.031Z,86.16
2022-09-30T08:01:53.999Z,86.02
2022-09-30T08:02:53.967Z,86.02
2022-09-30T08:03:53.960Z,85.92
2022-09-30T08:04:53.950Z,86.23
2022-09-30T08:05:53.948Z,86.33
2022-09-30T08:06:54.641Z,86.27
2022-09-30T08:07:53.925Z,86.47
2022-09-30T08:08:53.908Z,86.54
2022-09-30T08:09:53.960Z,86.74
2022-09-30T08:10:53.907Z,86.19
2022-09-30T08:11:54.061Z,85.68
2022-09-30T08:12:56.128Z,84.61
2022-09-30T08:13:54.866Z,84.61
2022-09-30T08:14:53.865Z,84.91
2022-09-30T08:15:53.861Z,85.16
2022-09-30T08:16:53.941Z,85.82
2022-09-30T08:17:53.847Z,86.64
2022-09-30T08:18:53.833Z,86.60
2022-09-30T08:19:53.830Z,85.98
2022-09-30T08:20:53.812Z,85.68
2022-09-30T08:21:53.882Z,84.91
2022-09-30T08:22:54.686Z,85.36
2022-09-30T08:23:53.795Z,85.26
2022-09-30T08:24:53.793Z,85.06
2022-09-30T08:25:53.782Z,84.71
2022-09-30T08:26:53.895Z,84.61
2022-09-30T08:27:53.765Z,83.64
2022-09-30T08:28:53.746Z,83.44
2022-09-30T08:29:56.093Z,83.23
2022-09-30T08:30:54.731Z,83.23
2022-09-30T08:31:53.765Z,83.23
2022-09-30T08:32:53.715Z,82.92
2022-09-30T08:33:53.710Z,82.82
2022-09-30T08:34:53.717Z,83.03
2022-09-30T08:35:53.695Z,82.78
2022-09-30T08:36:57.816Z,82.71
2022-09-30T08:37:55.710Z,83.13
2022-09-30T08:38:53.913Z,82.99
2022-09-30T08:39:53.679Z,83.13
2022-09-30T08:40:53.661Z,83.13
2022-09-30T08:41:53.654Z,82.47
2022-09-30T08:42:56.860Z,82.17
2022-09-30T08:43:54.634Z,81.96
2022-09-30T08:44:53.617Z,81.06
2022-09-30T08:45:53.683Z,79.90
2022-09-30T08:46:57.535Z,79.69
2022-09-30T08:47:54.600Z,79.24
2022-09-30T08:48:53.587Z,78.94
2022-09-30T08:49:53.581Z,79.49
2022-09-30T08:50:53.595Z,79.80
2022-09-30T08:51:53.605Z,79.90
2022-09-30T08:52:53.548Z,79.96
2022-09-30T08:53:53.542Z,80.07
2022-09-30T08:54:53.532Z,80.17
2022-09-30T08:55:53.530Z,79.90
2022-09-30T08:56:53.551Z,80.62
2022-09-30T08:57:53.526Z,81.06
2022-09-30T08:58:53.499Z,80.31
2022-09-30T08:59:53.492Z,80.07
2022-09-30T09:00:53.497Z,79.21
2022-09-30T09:01:56.118Z,79.00
2022-09-30T09:02:53.492Z,78.28
2022-09-30T09:03:54.152Z,78.86
2022-09-30T09:04:53.455Z,78.86
2022-09-30T09:05:53.451Z,78.66
2022-09-30T09:06:53.441Z,78.35
2022-09-30T09:07:53.444Z,78.83
2022-09-30T09:08:53.440Z,77.39
2022-09-30T09:09:53.432Z,76.54
2022-09-30T09:10:53.428Z,77.19
2022-09-30T09:11:53.406Z,77.29
2022-09-30T09:12:53.469Z,77.36
2022-09-30T09:13:53.394Z,76.71
2022-09-30T09:14:53.413Z,76.12
2022-09-30T09:15:53.369Z,75.17
2022-09-30T09:16:53.410Z,74.49
2022-09-30T09:18:18.204Z,74.69
2022-09-30T09:18:55.359Z,75.21
2022-09-30T09:19:53.340Z,75.10
2022-09-30T09:20:53.361Z,74.90
2022-09-30T09:21:53.320Z,75.27
2022-09-30T09:22:53.318Z,74.66
2022-09-30T09:23:53.318Z,73.50
2022-09-30T09:24:53.296Z,72.89
2022-09-30T09:25:53.299Z,73.27
2022-09-30T09:26:53.297Z,73.06
2022-09-30T09:27:53.325Z,73.36
2022-09-30T09:28:53.879Z,72.75
2022-09-30T09:29:54.164Z,73.03
2022-09-30T09:30:53.242Z,72.52
2022-09-30T09:31:53.326Z,72.41
2022-09-30T09:32:53.227Z,71.91
2022-09-30T09:33:53.235Z,72.17
2022-09-30T09:34:53.211Z,71.70
2022-09-30T09:35:53.202Z,72.00
2022-09-30T09:36:53.247Z,72.31
2022-09-30T09:37:54.083Z,72.96
2022-09-30T09:38:53.180Z,73.91
2022-09-30T09:39:53.201Z,74.22
2022-09-30T09:40:53.164Z,74.76
2022-09-30T09:41:54.707Z,74.25
2022-09-30T09:42:53.148Z,75.37
2022-09-30T09:43:53.139Z,76.33
2022-09-30T09:44:53.155Z,76.16
2022-09-30T09:45:53.198Z,76.74
2022-09-30T09:47:40.002Z,76.91
2022-09-30T09:48:39.993Z,78.34
2022-09-30T09:49:41.655Z,79.00
2022-09-30T09:50:41.056Z,79.10
2022-09-30T09:51:41.051Z,79.75
2022-09-30T09:52:41.049Z,80.43
2022-09-30T09:53:41.037Z,80.26
2022-09-30T09:54:41.070Z,80.88
2022-09-30T09:55:41.038Z,80.77
2022-09-30T09:56:41.014Z,80.88
2022-09-30T09:57:41.924Z,80.88
2022-09-30T09:58:41.037Z,81.08
2022-09-30T09:59:41.056Z,81.38
2022-09-30T10:00:40.980Z,81.49
2022-09-30T10:01:41.006Z,81.59
2022-09-30T10:02:41.019Z,82.21
2022-09-30T10:03:40.951Z,82.21
2022-09-30T10:04:41.955Z,82.65
2022-09-30T10:05:40.948Z,83.44
2022-09-30T10:06:41.947Z,82.96
2022-09-30T10:07:40.930Z,82.92
2022-09-30T10:08:40.923Z,83.13
2022-09-30T10:09:40.912Z,83.03
2022-09-30T10:10:40.912Z,83.13
2022-09-30T10:11:43.436Z,82.92
2022-09-30T10:12:41.869Z,83.13
2022-09-30T10:13:40.887Z,83.13
2022-09-30T10:14:40.896Z,82.92
2022-09-30T10:15:40.898Z,83.23
2022-09-30T10:16:42.873Z,83.13
2022-09-30T10:17:40.990Z,84.01
2022-09-30T10:18:40.845Z,83.91
2022-09-30T10:19:41.836Z,84.11
2022-09-30T10:20:40.857Z,82.95
2022-09-30T10:21:40.822Z,82.40
2022-09-30T10:22:40.808Z,81.88
2022-09-30T10:23:40.826Z,81.99
2022-09-30T10:24:40.833Z,82.09
2022-09-30T10:26:48.890Z,81.88
2022-09-30T10:27:47.121Z,81.79
2022-09-30T10:28:47.077Z,81.44
2022-09-30T10:29:47.067Z,81.54
2022-09-30T10:30:47.065Z,81.81
2022-09-30T10:31:47.109Z,81.51
2022-09-30T10:32:48.148Z,81.77
2022-09-30T10:33:49.143Z,81.77
2022-09-30T10:34:48.137Z,82.01
2022-09-30T10:35:48.108Z,82.01
2022-09-30T10:36:48.105Z,82.63
2022-09-30T10:37:51.397Z,82.69
2022-09-30T10:38:49.084Z,82.18
2022-09-30T10:39:48.542Z,82.49
2022-09-30T10:40:48.067Z,82.08
2022-09-30T10:41:48.065Z,81.77
2022-09-30T10:42:48.060Z,80.91
2022-09-30T10:43:48.052Z,80.30
2022-09-30T10:44:48.044Z,79.45
2022-09-30T10:46:06.974Z,79.55
2022-09-30T10:46:50.079Z,79.39
2022-09-30T10:47:48.012Z,78.64
2022-09-30T10:48:48.023Z,77.89
2022-09-30T10:49:49.047Z,78.19
2022-09-30T10:50:47.993Z,78.19
2022-09-30T10:51:48.004Z,78.60
2022-09-30T10:52:47.996Z,78.50
2022-09-30T10:53:48.502Z,77.78
2022-09-30T10:54:49.170Z,77.55
2022-09-30T10:55:47.961Z,78.22
2022-09-30T10:56:47.951Z,78.22
2022-09-30T10:57:48.025Z,78.02
2022-09-30T10:58:48.016Z,78.63
2022-09-30T10:59:47.930Z,77.61
2022-09-30T11:00:47.956Z,78.08
2022-09-30T11:01:47.946Z,77.98
2022-09-30T11:02:50.466Z,78.08
2022-09-30T11:03:50.564Z,78.08
2022-09-30T11:04:47.900Z,77.84
2022-09-30T11:05:47.905Z,78.05
2022-09-30T11:06:48.502Z,77.74
2022-09-30T11:07:47.863Z,77.44
2022-09-30T11:08:47.905Z,78.35
2022-09-30T11:09:47.862Z,77.50
2022-09-30T11:10:48.531Z,77.53
2022-09-30T11:11:47.822Z,76.68
2022-09-30T11:12:47.818Z,76.38
2022-09-30T11:13:47.805Z,76.04
2022-09-30T11:14:48.542Z,76.34
2022-09-30T11:15:47.794Z,74.92
2022-09-30T11:16:47.900Z,75.02
2022-09-30T11:17:47.822Z,74.68
2022-09-30T11:18:47.768Z,74.52
2022-09-30T11:19:47.762Z,73.16
2022-09-30T11:20:47.747Z,72.45
2022-09-30T11:21:48.541Z,71.80
2022-09-30T11:22:47.725Z,70.48
2022-09-30T11:23:49.540Z,69.47
2022-09-30T11:24:47.748Z,65.20
2022-09-30T11:25:47.718Z,65.00
2022-09-30T11:26:49.528Z,65.41
2022-09-30T11:27:47.763Z,64.29
2022-09-30T11:28:47.696Z,62.33
2022-09-30T11:29:47.696Z,61.21
2022-09-30T11:30:49.464Z,63.14
2022-09-30T11:31:47.713Z,63.17
2022-09-30T11:32:47.680Z,65.68
2022-09-30T11:33:47.644Z,65.37
2022-09-30T11:34:47.647Z,65.48
2022-09-30T11:35:47.660Z,63.34
2022-09-30T11:36:47.617Z,63.95
2022-09-30T11:37:47.610Z,62.94
2022-09-30T11:38:47.605Z,63.04
2022-09-30T11:39:47.596Z,62.91
2022-09-30T11:40:47.600Z,61.52
2022-09-30T11:41:47.577Z,61.90
2022-09-30T11:42:47.571Z,62.10
2022-09-30T11:43:47.567Z,61.39
2022-09-30T11:44:47.556Z,60.47
2022-09-30T11:45:47.584Z,59.86
2022-09-30T11:46:47.543Z,60.95
2022-09-30T11:47:47.528Z,61.25
2022-09-30T11:48:47.557Z,61.46
2022-09-30T11:49:47.528Z,62.78
2022-09-30T11:50:48.017Z,61.56
2022-09-30T11:51:47.499Z,61.83
2022-09-30T11:52:47.530Z,60.11
2022-09-30T11:53:48.019Z,61.36
2022-09-30T11:54:48.945Z,61.25
2022-09-30T11:55:47.500Z,60.62
2022-09-30T11:56:47.512Z,58.80
2022-09-30T11:57:47.488Z,58.39
2022-09-30T11:58:48.017Z,56.57
2022-09-30T11:59:47.433Z,56.16
2022-09-30T12:00:48.446Z,55.52
2022-09-30T12:01:47.469Z,56.84
2022-09-30T12:02:47.460Z,57.75
2022-09-30T12:03:47.407Z,57.78
2022-09-30T12:04:47.399Z,58.09
2022-09-30T12:05:48.025Z,58.69
2022-09-30T12:06:47.415Z,58.47
2022-09-30T12:07:47.376Z,57.96
2022-09-30T12:08:48.945Z,57.75
2022-09-30T12:09:47.359Z,58.26
2022-09-30T12:10:47.355Z,58.84
2022-09-30T12:11:47.387Z,57.96
2022-09-30T12:12:47.334Z,58.36
2022-09-30T12:13:47.349Z,58.06
2022-09-30T12:14:47.325Z,57.75
2022-09-30T12:15:48.043Z,57.65
2022-09-30T12:16:47.378Z,58.76
2022-09-30T12:17:47.337Z,57.65
2022-09-30T12:18:47.297Z,59.17
2022-09-30T12:19:47.420Z,59.34
2022-09-30T12:20:47.286Z,59.25
2022-09-30T12:21:47.285Z,59.14
2022-09-30T12:22:47.265Z,59.22
2022-09-30T12:23:47.250Z,59.65
2022-09-30T12:24:47.249Z,59.14
2022-09-30T12:25:47.246Z,59.14
2022-09-30T12:26:48.956Z,59.45
2022-09-30T12:28:17.468Z,60.16
2022-09-30T12:28:47.224Z,60.53
2022-09-30T12:29:47.227Z,59.52
2022-09-30T12:30:47.200Z,59.22
2022-09-30T12:31:47.222Z,59.01
2022-09-30T12:32:47.191Z,59.32
2022-09-30T12:33:47.171Z,59.19
2022-09-30T12:34:47.160Z,58.18
2022-09-30T12:35:47.158Z,58.07
2022-09-30T12:36:47.146Z,58.99
2022-09-30T12:37:47.147Z,58.25
2022-09-30T12:38:47.143Z,57.95
2022-09-30T12:39:47.128Z,58.25
2022-09-30T12:40:52.430Z,58.05
2022-09-30T12:41:48.118Z,57.95
2022-09-30T12:42:48.115Z,59.19
2022-09-30T12:43:47.090Z,59.59
2022-09-30T12:44:47.085Z,59.52
2022-09-30T12:45:47.117Z,60.23
2022-09-30T12:46:47.098Z,60.13
2022-09-30T12:47:47.064Z,60.33
2022-09-30T12:48:47.097Z,60.13
2022-09-30T12:49:47.045Z,60.33
2022-09-30T12:50:47.083Z,60.23
2022-09-30T12:51:47.038Z,59.49
2022-09-30T12:52:47.026Z,59.19
2022-09-30T12:53:47.017Z,59.27
2022-09-30T12:54:47.011Z,59.47
2022-09-30T12:55:46.999Z,58.56
2022-09-30T12:56:46.998Z,57.82